Time;durP1;ratioP1;P1;durP2;ratioP2;P2;SDS_P1;SDS_P2;PMS_P1;PMS_P2;Temp;Humidity;BMP_temperature;BMP_pressure;BME280_temperature;BME280_humidity;BME280_pressure;Samples;Min_cycle;Max_cycle;Signal;HPM_P1;HPM_P2
2020/12/30 00:00:26;;;;;;;4.73;3.70;;;;;;;4.68;67.17;93953.44;5066973;28;20852;-80
2020/12/30 00:02:52;;;;;;;4.47;3.53;;;;;;;4.66;67.17;93953.59;5067473;28;20212;-77
2020/12/30 00:05:18;;;;;;;4.30;3.53;;;;;;;4.69;66.78;93957.56;5066401;28;20273;-79
2020/12/30 00:07:45;;;;;;;4.50;3.97;;;;;;;4.66;67.33;93951.06;5067684;28;20200;-79
2020/12/30 00:10:13;;;;;;;5.53;3.73;;;;;;;4.60;67.55;93962.00;5066662;28;20362;-80
2020/12/30 00:12:39;;;;;;;4.03;3.53;;;;;;;4.56;67.62;93958.22;5067244;28;20193;-80
2020/12/30 00:15:07;;;;;;;4.67;3.63;;;;;;;4.53;67.36;93965.44;5066743;28;20246;-79
2020/12/30 00:17:33;;;;;;;4.03;3.40;;;;;;;4.46;67.63;93965.34;5066870;28;20216;-79
2020/12/30 00:19:59;;;;;;;6.00;3.70;;;;;;;4.48;67.96;93964.19;5067210;28;20224;-79
2020/12/30 00:22:25;;;;;;;4.37;3.37;;;;;;;4.46;67.81;93963.59;5070663;28;20205;-80
2020/12/30 00:24:52;;;;;;;4.07;3.40;;;;;;;4.34;68.41;93957.38;5070652;28;20207;-79
2020/12/30 00:27:18;;;;;;;4.00;3.40;;;;;;;4.28;68.18;93955.53;5069875;28;20847;-76
2020/12/30 00:29:44;;;;;;;4.87;3.40;;;;;;;4.28;68.08;93964.94;5070523;28;20217;-75
2020/12/30 00:32:10;;;;;;;3.80;3.23;;;;;;;4.24;68.47;93972.13;5070607;28;20197;-77
2020/12/30 00:34:36;;;;;;;4.30;3.23;;;;;;;4.27;67.93;93969.25;5070058;28;20691;-76
2020/12/30 00:37:02;;;;;;;4.83;3.33;;;;;;;4.29;68.16;93974.16;5070411;28;20216;-79
2020/12/30 00:39:28;;;;;;;3.50;3.20;;;;;;;4.29;68.37;93972.41;5069923;28;20227;-81
2020/12/30 00:41:56;;;;;;;5.33;3.60;;;;;;;4.28;68.37;93973.38;5070408;28;20193;-79
2020/12/30 00:44:22;;;;;;;4.83;3.67;;;;;;;4.30;67.84;93971.44;5069855;28;20189;-79
2020/12/30 00:46:51;;;;;;;4.97;3.87;;;;;;;4.31;67.92;93975.56;5069806;28;20192;-80
2020/12/30 00:49:17;;;;;;;4.63;3.90;;;;;;;4.24;68.56;93972.13;5069945;28;20226;-79
2020/12/30 00:51:47;;;;;;;4.87;3.57;;;;;;;4.18;68.62;93980.50;5069829;28;20196;-79
2020/12/30 00:54:13;;;;;;;4.63;3.80;;;;;;;4.14;68.72;93981.81;5050006;28;20205;-80
2020/12/30 00:56:39;;;;;;;4.43;3.90;;;;;;;4.09;68.88;93972.16;5049665;28;20218;-80
2020/12/30 00:59:06;;;;;;;5.57;4.13;;;;;;;4.03;69.24;93977.97;5069266;28;20196;-75
2020/12/30 01:01:32;;;;;;;4.17;3.77;;;;;;;4.04;69.13;93978.75;5069694;28;20778;-75
2020/12/30 01:03:57;;;;;;;5.23;3.80;;;;;;;4.09;68.92;93979.00;5070053;28;20205;-76
2020/12/30 01:06:23;;;;;;;5.57;3.73;;;;;;;4.12;68.62;93983.75;5069574;28;20197;-79
2020/12/30 01:08:49;;;;;;;4.67;3.47;;;;;;;4.15;68.71;93979.09;5069967;28;20200;-76
2020/12/30 01:11:24;;;;;;;4.03;3.63;;;;;;;4.15;68.29;93988.50;5069416;28;20848;-76
2020/12/30 01:13:50;;;;;;;4.50;3.47;;;;;;;4.17;68.28;93984.00;5070207;28;20253;-79
2020/12/30 01:16:16;;;;;;;4.50;3.30;;;;;;;4.18;68.29;93997.53;5069701;28;20213;-76
2020/12/30 01:18:42;;;;;;;4.47;3.47;;;;;;;4.14;68.59;93995.34;5069783;28;20205;-77
2020/12/30 01:21:08;;;;;;;5.73;3.97;;;;;;;4.13;68.41;93998.06;5069444;28;20278;-79
2020/12/30 01:23:34;;;;;;;4.20;3.70;;;;;;;4.15;68.58;93996.91;5069737;28;20208;-78
2020/12/30 01:26:02;;;;;;;4.10;3.70;;;;;;;4.17;68.33;94001.84;5068990;28;20197;-79
2020/12/30 01:28:28;;;;;;;3.90;3.40;;;;;;;4.19;68.13;93996.56;5068893;28;20212;-80
2020/12/30 01:30:54;;;;;;;3.73;3.23;;;;;;;4.18;68.42;93995.78;5069349;28;20217;-80
2020/12/30 01:33:21;;;;;;;4.67;3.67;;;;;;;4.18;68.13;94005.19;5069647;28;20208;-75
2020/12/30 01:35:46;;;;;;;4.23;3.50;;;;;;;4.19;68.06;94005.00;5069259;28;20193;-77
2020/12/30 01:38:12;;;;;;;4.83;3.80;;;;;;;4.14;68.35;94002.97;5069112;28;20724;-76
2020/12/30 01:40:38;;;;;;;4.97;3.73;;;;;;;4.06;68.72;94010.69;5069047;28;20212;-79
2020/12/30 01:43:04;;;;;;;5.47;4.20;;;;;;;4.06;68.35;94005.59;5068990;28;20192;-80
2020/12/30 01:45:30;;;;;;;4.80;3.80;;;;;;;4.02;68.49;94012.03;5069212;28;20290;-78
2020/12/30 01:47:56;;;;;;;5.37;3.97;;;;;;;4.02;68.88;94014.59;5069005;28;20196;-76
2020/12/30 01:50:23;;;;;;;4.23;3.80;;;;;;;4.03;68.33;94012.81;5069440;28;20224;-79
2020/12/30 01:52:53;;;;;;;4.50;3.63;;;;;;;4.04;68.50;94022.81;5069073;28;20266;-80
2020/12/30 01:55:24;;;;;;;5.50;3.90;;;;;;;4.04;68.44;94012.63;5068531;28;20678;-79
2020/12/30 01:57:50;;;;;;;4.67;3.60;;;;;;;4.03;68.43;94016.16;5069367;28;20221;-79
2020/12/30 02:00:15;;;;;;;4.13;3.67;;;;;;;3.94;68.39;94027.38;5070326;28;20796;-77
2020/12/30 02:02:48;;;;;;;5.03;4.00;;;;;;;3.96;68.32;94019.56;5069719;28;20562;-80
2020/12/30 02:05:20;;;;;;;4.23;3.83;;;;;;;3.93;69.01;94017.38;5069499;28;20201;-76
2020/12/30 02:07:46;;;;;;;4.30;3.90;;;;;;;3.92;68.85;94011.47;5070227;28;20883;-76
2020/12/30 02:10:16;;;;;;;4.67;3.50;;;;;;;3.91;68.91;94012.44;5068785;28;20220;-79
2020/12/30 02:12:42;;;;;;;5.07;3.90;;;;;;;3.93;68.95;94007.97;5069645;28;20199;-79
2020/12/30 02:15:08;;;;;;;4.13;3.60;;;;;;;3.95;68.85;94010.34;5069729;28;20204;-77
2020/12/30 02:17:34;;;;;;;5.60;4.30;;;;;;;3.90;68.91;94015.16;5069542;28;20278;-79
2020/12/30 02:19:59;;;;;;;4.80;4.00;;;;;;;3.90;69.19;94017.72;5068898;28;20647;-79
2020/12/30 02:22:29;;;;;;;3.97;3.53;;;;;;;3.85;69.55;94014.91;5069121;28;20212;-76
2020/12/30 02:24:56;;;;;;;5.57;4.20;;;;;;;3.88;69.17;94015.34;5068810;28;20205;-80
2020/12/30 02:27:22;;;;;;;5.30;4.20;;;;;;;3.91;69.67;94022.63;5068039;28;20193;-77
2020/12/30 02:29:48;;;;;;;5.63;4.37;;;;;;;3.91;68.91;94022.63;5068835;28;20290;-80
2020/12/30 02:32:14;;;;;;;4.43;4.03;;;;;;;3.92;69.35;94023.41;5068164;28;20200;-75
2020/12/30 02:34:40;;;;;;;5.53;4.03;;;;;;;3.84;69.41;94024.31;5068319;28;20254;-76
2020/12/30 02:37:06;;;;;;;5.77;4.10;;;;;;;3.82;69.40;94028.78;5068426;28;20224;-79
2020/12/30 02:39:32;;;;;;;5.10;4.10;;;;;;;3.86;69.66;94026.66;5067838;28;20216;-80
2020/12/30 02:41:59;;;;;;;4.40;3.90;;;;;;;3.80;69.34;94023.88;5068863;28;20694;-74
2020/12/30 02:44:25;;;;;;;6.37;4.27;;;;;;;3.72;69.74;94018.03;5066887;28;20204;-79
2020/12/30 02:46:51;;;;;;;5.23;3.80;;;;;;;3.72;69.85;94029.00;5068571;28;20197;-76
2020/12/30 02:49:17;;;;;;;3.90;3.60;;;;;;;3.73;69.98;94022.97;5068080;28;20228;-79
2020/12/30 02:51:43;;;;;;;4.47;3.90;;;;;;;3.78;69.78;94022.44;5069040;28;20200;-79
2020/12/30 02:54:09;;;;;;;5.43;4.13;;;;;;;3.77;69.45;94026.75;5069002;28;20206;-77
2020/12/30 02:56:36;;;;;;;4.93;3.80;;;;;;;3.80;69.46;94028.94;5068811;28;20221;-77
2020/12/30 02:59:03;;;;;;;4.50;3.80;;;;;;;3.85;69.45;94025.88;5068712;28;20398;-79
2020/12/30 03:01:29;;;;;;;3.90;3.50;;;;;;;3.84;69.32;94026.84;5068839;28;20213;-80
2020/12/30 03:03:55;;;;;;;4.77;3.70;;;;;;;3.83;69.65;94030.38;5069646;28;20208;-80
2020/12/30 03:06:24;;;;;;;5.03;3.60;;;;;;;3.80;69.56;94028.94;5069402;28;20197;-79
2020/12/30 03:08:50;;;;;;;4.80;4.00;;;;;;;3.74;69.94;94019.44;5068871;28;20197;-79
2020/12/30 03:11:16;;;;;;;6.43;4.07;;;;;;;3.64;70.63;94021.47;5067756;28;20248;-80
2020/12/30 03:13:42;;;;;;;4.67;3.77;;;;;;;3.65;70.46;94035.78;5067507;28;20270;-77
2020/12/30 03:16:08;;;;;;;3.83;3.40;;;;;;;3.70;70.16;94036.03;5067678;28;20277;-79
2020/12/30 03:18:34;;;;;;;4.67;3.50;;;;;;;3.74;70.13;94044.13;5067686;28;20193;-77
2020/12/30 03:21:00;;;;;;;4.67;3.20;;;;;;;3.78;70.15;94046.16;5067470;28;20212;-76
2020/12/30 03:23:26;;;;;;;4.10;3.40;;;;;;;3.78;70.08;94051.25;5067564;28;20207;-79
2020/12/30 03:25:52;;;;;;;4.13;3.40;;;;;;;3.84;70.04;94052.31;5067263;28;20200;-77
2020/12/30 03:28:18;;;;;;;3.80;3.20;;;;;;;3.84;69.77;94052.31;5067591;28;20189;-80
2020/12/30 03:30:44;;;;;;;5.57;3.30;;;;;;;3.89;69.54;94049.22;5067271;28;20217;-76
2020/12/30 03:33:10;;;;;;;4.50;3.47;;;;;;;3.90;69.30;94046.50;5067116;28;20687;-82
2020/12/30 03:35:36;;;;;;;4.13;3.43;;;;;;;3.86;69.50;94050.34;5067673;28;20204;-77
2020/12/30 03:38:02;;;;;;;4.37;3.30;;;;;;;3.85;69.45;94048.78;5067287;28;20231;-77
2020/12/30 03:40:28;;;;;;;3.80;3.40;;;;;;;3.76;69.33;94044.72;5067181;28;20893;-76
2020/12/30 03:42:54;;;;;;;4.20;3.33;;;;;;;3.83;69.71;94048.19;5067085;28;20207;-76
2020/12/30 03:45:20;;;;;;;4.07;3.30;;;;;;;3.84;69.82;94054.84;5067124;28;20205;-75
2020/12/30 03:47:46;;;;;;;4.23;2.90;;;;;;;3.85;69.55;94053.88;5067406;28;20201;-80
2020/12/30 03:50:13;;;;;;;4.40;2.93;;;;;;;3.86;69.19;94044.47;5066858;28;20223;-79
2020/12/30 03:52:38;;;;;;;2.97;2.63;;;;;;;3.87;69.16;94046.84;5067909;28;20201;-81
2020/12/30 03:55:04;;;;;;;3.50;2.70;;;;;;;3.85;69.24;94050.56;5067800;28;20215;-76
2020/12/30 03:57:30;;;;;;;3.93;2.90;;;;;;;3.87;69.37;94058.78;5070640;28;20216;-79
2020/12/30 03:59:56;;;;;;;4.53;2.90;;;;;;;3.91;69.30;94065.13;5071027;28;20620;-77
2020/12/30 04:02:22;;;;;;;3.10;2.80;;;;;;;3.94;69.47;94068.13;5070972;28;20201;-79
2020/12/30 04:04:48;;;;;;;2.93;2.60;;;;;;;3.96;69.32;94065.41;5070373;28;20197;-79
2020/12/30 04:07:15;;;;;;;3.33;2.83;;;;;;;3.94;69.45;94062.22;5071151;28;20806;-77
2020/12/30 04:09:41;;;;;;;3.27;2.57;;;;;;;3.92;69.10;94062.41;5070719;28;20221;-79
2020/12/30 04:12:07;;;;;;;3.40;2.50;;;;;;;3.95;69.01;94069.69;5070970;28;20875;-79
2020/12/30 04:14:33;;;;;;;2.57;2.37;;;;;;;3.95;69.46;94058.72;5070156;28;20197;-79
2020/12/30 04:16:59;;;;;;;3.27;2.87;;;;;;;3.97;69.03;94051.69;5070503;28;20320;-78
2020/12/30 04:19:24;;;;;;;2.70;2.50;;;;;;;3.93;69.17;94053.00;5070502;28;20684;-77
2020/12/30 04:21:50;;;;;;;3.43;2.50;;;;;;;3.94;69.48;94050.28;5070894;28;20204;-80
2020/12/30 04:24:17;;;;;;;3.53;2.20;;;;;;;3.94;69.32;94055.38;5070719;28;20829;-79
2020/12/30 04:26:43;;;;;;;2.63;2.20;;;;;;;3.96;69.07;94058.56;5071202;28;20193;-79
2020/12/30 04:29:09;;;;;;;3.10;2.33;;;;;;;3.97;69.08;94066.97;5070541;28;20196;-79
2020/12/30 04:31:36;;;;;;;2.57;2.20;;;;;;;3.97;68.91;94066.97;5070597;28;20220;-77
2020/12/30 04:34:02;;;;;;;2.00;1.80;;;;;;;3.99;68.74;94060.75;5070269;28;20295;-76
2020/12/30 04:36:28;;;;;;;2.40;2.03;;;;;;;3.99;68.91;94057.41;5070335;28;20229;-80
2020/12/30 04:38:54;;;;;;;2.70;1.80;;;;;;;4.00;69.16;94059.00;5070410;28;20226;-77
2020/12/30 04:41:27;;;;;;;2.10;1.80;;;;;;;4.02;68.83;94060.41;5070310;28;20225;-79
2020/12/30 04:43:53;;;;;;;1.73;1.63;;;;;;;4.00;68.97;94061.53;5070027;28;20254;-79
2020/12/30 04:46:21;;;;;;;2.20;1.73;;;;;;;3.99;69.13;94060.75;5070554;28;20224;-79
2020/12/30 04:48:48;;;;;;;1.60;1.50;;;;;;;3.97;68.78;94060.13;5070314;28;20760;-79
2020/12/30 04:51:14;;;;;;;2.30;1.70;;;;;;;3.98;68.72;94058.38;5070040;28;20220;-79
2020/12/30 04:53:40;;;;;;;2.10;1.90;;;;;;;3.99;69.13;94062.50;5070153;28;20209;-79
2020/12/30 04:56:08;;;;;;;4.23;2.07;;;;;;;4.03;69.01;94068.84;5070104;28;20747;-80
2020/12/30 04:58:35;;;;;;;3.30;2.30;;;;;;;4.08;69.13;94072.44;5070711;28;20333;-76
2020/12/30 05:01:01;;;;;;;2.50;1.80;;;;;;;4.08;69.29;94076.72;5070605;28;20213;-79
2020/12/30 05:03:28;;;;;;;2.47;1.90;;;;;;;4.12;68.83;94066.03;5070445;28;20201;-81
2020/12/30 05:05:56;;;;;;;1.97;1.67;;;;;;;4.17;68.78;94078.25;5069957;28;20212;-80
2020/12/30 05:08:22;;;;;;;3.00;1.70;;;;;;;4.20;68.83;94077.91;5070905;28;20236;-80
2020/12/30 05:10:49;;;;;;;1.77;1.67;;;;;;;4.19;68.89;94089.06;5070128;28;20213;-76
2020/12/30 05:13:15;;;;;;;2.13;1.70;;;;;;;4.18;68.45;94090.03;5069896;28;20193;-80
2020/12/30 05:15:42;;;;;;;3.00;2.10;;;;;;;4.14;68.73;94094.66;5069639;28;20201;-76
2020/12/30 05:18:08;;;;;;;1.60;1.50;;;;;;;4.13;68.85;94100.72;5070315;28;20695;-79
2020/12/30 05:20:38;;;;;;;2.63;2.10;;;;;;;4.10;68.85;94105.38;5069448;28;20220;-78
2020/12/30 05:23:05;;;;;;;10.80;7.97;;;;;;;4.06;69.44;94106.66;5069957;28;20200;-76
2020/12/30 05:25:34;;;;;;;6.90;4.67;;;;;;;3.97;70.52;94113.59;5069208;28;20242;-79
2020/12/30 05:28:01;;;;;;;3.33;2.70;;;;;;;3.97;70.67;94111.06;5070124;28;20205;-76
2020/12/30 05:30:29;;;;;;;3.10;2.60;;;;;;;4.01;71.06;94111.50;5069370;28;20224;-79
2020/12/30 05:32:56;;;;;;;3.60;2.60;;;;;;;4.06;71.22;94116.84;5069891;28;20255;-79
2020/12/30 05:35:22;;;;;;;3.40;2.53;;;;;;;4.06;70.80;94117.66;5068854;28;20204;-80
2020/12/30 05:37:49;;;;;;;2.67;2.47;;;;;;;4.07;71.31;94120.97;5069835;28;20626;-76
2020/12/30 05:40:22;;;;;;;3.80;2.50;;;;;;;4.07;71.85;94121.78;5069123;28;20213;-79
2020/12/30 05:42:49;;;;;;;3.30;2.40;;;;;;;4.07;72.27;94124.31;5067838;28;20208;-79
2020/12/30 05:45:19;;;;;;;3.03;2.70;;;;;;;4.08;71.72;94131.00;5068978;28;20200;-76
2020/12/30 05:47:45;;;;;;;3.03;2.73;;;;;;;4.08;71.92;94136.09;5065650;28;20273;-79
2020/12/30 05:50:12;;;;;;;3.27;2.63;;;;;;;4.05;72.48;94136.44;5062205;28;20220;-81
2020/12/30 05:52:40;;;;;;;3.67;2.60;;;;;;;4.09;72.11;94136.88;5062815;28;20228;-80
2020/12/30 05:55:08;;;;;;;2.90;2.60;;;;;;;4.10;72.35;94141.81;5061454;28;20234;-81
2020/12/30 05:57:36;;;;;;;2.93;2.57;;;;;;;4.16;72.35;94146.22;5059843;28;20618;-81
2020/12/30 06:00:05;;;;;;;2.97;2.60;;;;;;;4.18;72.15;94156.22;5056549;28;20708;-76
2020/12/30 06:02:32;;;;;;;3.03;2.73;;;;;;;4.21;72.11;94155.91;5061081;28;20400;-76
2020/12/30 06:05:09;;;;;;;3.83;2.47;;;;;;;4.21;72.98;94155.09;5059329;28;20196;-79
2020/12/30 06:07:37;;;;;;;8.27;5.83;;;;;;;4.25;72.26;94154.56;5067973;28;20192;-79
2020/12/30 06:10:04;;;;;;;11.87;9.57;;;;;;;4.30;72.02;94162.47;5067915;28;20720;-77
2020/12/30 06:12:34;;;;;;;8.43;6.30;;;;;;;4.33;72.07;94166.44;5068092;28;20200;-76
2020/12/30 06:15:02;;;;;;;6.40;5.00;;;;;;;4.36;71.89;94166.91;5067215;28;20212;-78
2020/12/30 06:17:30;;;;;;;3.53;3.10;;;;;;;4.36;71.65;94171.19;5067047;28;20217;-76
2020/12/30 06:19:56;;;;;;;3.93;3.00;;;;;;;4.37;71.92;94160.03;5067853;28;20933;-76
2020/12/30 06:22:25;;;;;;;3.67;2.90;;;;;;;4.27;72.75;94162.03;5068428;28;20196;-76
2020/12/30 06:24:54;;;;;;;2.93;2.60;;;;;;;4.28;72.46;94168.72;5065442;28;20201;-75
2020/12/30 06:27:21;;;;;;;2.70;2.50;;;;;;;4.26;72.60;94170.63;5068040;28;20242;-75
2020/12/30 06:29:49;;;;;;;2.80;2.50;;;;;;;4.22;73.00;94172.75;5068697;28;20228;-77
2020/12/30 06:32:33;;;;;;;3.20;2.83;;;;;;;4.19;73.18;94173.09;5067244;28;20197;-76
2020/12/30 06:35:02;;;;;;;3.13;2.70;;;;;;;4.22;72.95;94175.31;5066893;28;20208;-76
2020/12/30 06:37:31;;;;;;;2.50;2.30;;;;;;;4.22;72.70;94182.94;5067911;28;20216;-78
2020/12/30 06:40:30;;;;;;;4.20;2.67;;;;;;;4.20;73.02;94179.78;5067535;28;20217;-76
2020/12/30 06:42:58;;;;;;;2.93;2.63;;;;;;;4.23;73.00;94179.44;5067159;28;20197;-76
2020/12/30 06:45:50;;;;;;;3.53;2.53;;;;;;;4.24;73.02;94183.53;5067173;28;20197;-75
2020/12/30 06:48:17;;;;;;;3.10;2.60;;;;;;;4.21;72.84;94178.81;5067105;28;20694;-76
2020/12/30 06:50:42;;;;;;;3.47;2.50;;;;;;;4.15;73.38;94184.59;5067342;28;20221;-76
2020/12/30 06:53:23;;;;;;;3.03;2.73;;;;;;;4.15;73.91;94187.13;5066910;28;20289;-75
2020/12/30 06:55:50;;;;;;;2.93;2.50;;;;;;;4.13;74.52;94189.84;5065051;28;20212;-76
2020/12/30 06:58:50;;;;;;;3.20;2.77;;;;;;;4.16;73.49;94201.47;5066998;28;20229;-75
2020/12/30 07:01:18;;;;;;;3.17;2.87;;;;;;;4.20;73.26;94192.50;5052208;28;20220;-75
2020/12/30 07:03:45;;;;;;;3.17;2.83;;;;;;;4.23;73.36;94199.03;5062565;28;20193;-78
2020/12/30 07:06:29;;;;;;;3.10;2.80;;;;;;;4.24;72.85;94210.78;5065812;28;20200;-75
2020/12/30 07:08:56;;;;;;;2.47;2.27;;;;;;;4.18;73.18;94203.84;5066072;28;20275;-78
2020/12/30 07:11:50;;;;;;;2.97;2.57;;;;;;;4.21;72.89;94204.28;5066562;28;20246;-76
2020/12/30 07:14:18;;;;;;;2.77;2.37;;;;;;;4.22;72.43;94203.31;5047829;28;20197;-77
2020/12/30 07:16:47;;;;;;;3.03;2.73;;;;;;;4.28;72.34;94206.94;5065975;28;20225;-76
2020/12/30 07:19:14;;;;;;;3.53;2.57;;;;;;;4.25;73.68;94214.91;5066080;28;20189;-76
2020/12/30 07:21:51;;;;;;;2.80;2.60;;;;;;;4.28;72.55;94217.13;5066015;28;20288;-79
2020/12/30 07:24:22;;;;;;;3.47;2.40;;;;;;;4.31;72.15;94219.31;5063680;28;22643;-76
2020/12/30 07:26:50;;;;;;;3.50;2.20;;;;;;;4.22;71.89;94210.97;5065627;28;20196;-76
2020/12/30 07:29:17;;;;;;;15.10;10.90;;;;;;;4.23;72.04;94219.41;5065583;28;20756;-77
2020/12/30 07:31:47;;;;;;;3.23;2.67;;;;;;;4.19;71.78;94223.25;5066154;28;20197;-76
2020/12/30 07:34:15;;;;;;;2.80;2.50;;;;;;;4.18;71.32;94225.00;5064123;28;20562;-77
2020/12/30 07:36:42;;;;;;;2.37;2.13;;;;;;;4.15;71.31;94227.88;5063609;28;20277;-76
2020/12/30 07:39:09;;;;;;;2.20;1.80;;;;;;;4.11;70.96;94234.28;5066311;28;20247;-76
2020/12/30 07:41:36;;;;;;;2.67;2.07;;;;;;;4.06;70.74;94239.06;5065523;28;20208;-76
2020/12/30 07:44:04;;;;;;;2.57;2.20;;;;;;;4.03;71.46;94236.91;5066251;28;20284;-76
2020/12/30 07:46:31;;;;;;;2.37;2.17;;;;;;;4.02;71.13;94240.41;5066575;28;20284;-76
2020/12/30 07:49:15;;;;;;;16.47;12.47;;;;;;;4.05;71.15;94245.91;5066360;28;20203;-76
2020/12/30 07:51:50;;;;;;;4.23;3.47;;;;;;;4.09;70.76;94246.38;5065111;28;20201;-76
2020/12/30 07:54:17;;;;;;;2.50;2.30;;;;;;;4.11;70.08;94254.66;5063022;28;20197;-76
2020/12/30 07:56:43;;;;;;;2.37;2.17;;;;;;;4.25;69.65;94256.44;5065221;28;20220;-77
2020/12/30 07:59:11;;;;;;;2.70;2.20;;;;;;;4.43;69.39;94261.25;5065952;28;20200;-76
2020/12/30 08:01:37;;;;;;;2.50;2.27;;;;;;;4.53;68.37;94258.47;5065538;28;20217;-76
2020/12/30 08:04:09;;;;;;;2.73;2.30;;;;;;;4.60;68.17;94257.63;5065620;28;20240;-76
2020/12/30 08:06:43;;;;;;;2.50;2.23;;;;;;;4.65;67.53;94262.19;5065493;28;20196;-76
2020/12/30 08:09:09;;;;;;;3.00;2.27;;;;;;;4.70;67.36;94260.72;5065180;28;20769;-75
2020/12/30 08:11:35;;;;;;;2.30;1.80;;;;;;;4.71;67.09;94261.50;5065761;28;20779;-76
2020/12/30 08:14:08;;;;;;;4.37;2.27;;;;;;;4.70;67.00;94263.25;5064799;28;20193;-80
2020/12/30 08:16:34;;;;;;;2.10;1.90;;;;;;;4.66;66.36;94272.22;5060846;28;20216;-76
2020/12/30 08:19:00;;;;;;;2.07;1.83;;;;;;;4.64;66.14;94269.03;5065203;28;20197;-74
2020/12/30 08:21:26;;;;;;;2.17;1.70;;;;;;;4.56;65.71;94274.22;5065751;28;20600;-76
2020/12/30 08:24:05;;;;;;;3.37;1.80;;;;;;;4.47;65.44;94280.34;5065423;28;20205;-82
2020/12/30 08:26:35;;;;;;;3.50;2.00;;;;;;;4.50;65.50;94282.53;5065295;28;20204;-78
2020/12/30 08:29:01;;;;;;;2.03;1.83;;;;;;;4.52;65.14;94280.63;5064510;28;20211;-81
2020/12/30 08:31:41;;;;;;;3.07;1.80;;;;;;;4.54;65.07;94281.25;5065888;28;20220;-76
2020/12/30 08:34:09;;;;;;;2.17;1.97;;;;;;;4.58;65.21;94282.50;5064504;28;20603;-75
2020/12/30 08:36:41;;;;;;;2.30;1.83;;;;;;;4.59;65.30;94286.63;5065633;28;20627;-76
2020/12/30 08:39:08;;;;;;;2.70;1.83;;;;;;;4.64;64.82;94291.19;5065286;28;20291;-76
2020/12/30 08:41:47;;;;;;;2.40;2.00;;;;;;;4.61;64.23;94294.09;5066958;28;20213;-76
2020/12/30 08:44:17;;;;;;;1.70;1.50;;;;;;;4.65;64.50;94295.31;5068544;28;20243;-76
2020/12/30 08:46:48;;;;;;;2.67;2.00;;;;;;;4.68;64.58;94300.88;5068927;28;20192;-75
2020/12/30 08:49:18;;;;;;;2.50;1.77;;;;;;;4.81;64.03;94302.88;5058525;28;20197;-76
2020/12/30 08:51:44;;;;;;;3.03;1.83;;;;;;;4.84;63.66;94307.59;5068940;28;20199;-76
2020/12/30 08:54:16;;;;;;;1.53;1.43;;;;;;;4.97;63.72;94314.66;5065541;28;20188;-76
2020/12/30 08:56:43;;;;;;;2.00;1.67;;;;;;;4.96;62.97;94311.31;5066350;28;20294;-75
2020/12/30 08:59:09;;;;;;;2.00;1.47;;;;;;;4.99;62.69;94315.28;5067869;28;20192;-76
2020/12/30 09:01:35;;;;;;;2.50;2.07;;;;;;;5.05;62.74;94312.03;5065780;28;20290;-75
2020/12/30 09:04:08;;;;;;;2.70;1.73;;;;;;;5.01;62.87;94303.13;5066686;28;20911;-78
2020/12/30 09:06:35;;;;;;;1.97;1.67;;;;;;;5.03;62.76;94308.84;5063242;28;20606;-76
2020/12/30 09:09:09;;;;;;;2.40;1.83;;;;;;;4.98;63.04;94306.06;5069768;28;20687;-80
2020/12/30 09:11:35;;;;;;;2.63;2.03;;;;;;;5.03;62.76;94304.56;5068618;28;20580;-76
2020/12/30 09:14:13;;;;;;;2.23;1.87;;;;;;;5.09;63.18;94303.88;5068058;28;20205;-75
2020/12/30 09:16:51;;;;;;;2.90;1.97;;;;;;;5.26;62.65;94311.34;5067651;28;20216;-75
2020/12/30 09:19:18;;;;;;;1.83;1.60;;;;;;;5.35;62.46;94313.66;5067695;28;20201;-77
2020/12/30 09:21:44;;;;;;;3.97;1.97;;;;;;;5.36;61.05;94311.91;5067950;28;20280;-75
2020/12/30 09:24:12;;;;;;;6.73;2.23;;;;;;;5.41;61.28;94307.81;5065434;28;20846;-74
2020/12/30 09:26:38;;;;;;;2.13;1.77;;;;;;;5.42;61.00;94314.53;5063003;28;20200;-77
2020/12/30 09:29:04;;;;;;;2.63;1.80;;;;;;;5.45;61.16;94326.13;5067441;28;20204;-77
2020/12/30 09:31:30;;;;;;;2.20;1.80;;;;;;;5.51;61.33;94328.00;5056653;28;20216;-78
2020/12/30 09:33:56;;;;;;;2.57;2.00;;;;;;;5.54;61.35;94333.56;5057172;28;20197;-73
2020/12/30 09:36:22;;;;;;;2.20;2.00;;;;;;;5.53;61.26;94329.41;5066313;28;20197;-77
2020/12/30 09:38:55;;;;;;;2.30;1.87;;;;;;;5.52;61.35;94327.81;5050216;28;20611;-76
2020/12/30 09:41:21;;;;;;;2.30;1.83;;;;;;;5.52;61.79;94327.81;5068257;28;20295;-78
2020/12/30 09:43:47;;;;;;;1.90;1.80;;;;;;;5.48;61.67;94330.91;5066951;28;20199;-77
2020/12/30 09:46:21;;;;;;;2.20;1.80;;;;;;;5.46;61.87;94327.72;5067290;28;20330;-77
2020/12/30 09:48:47;;;;;;;2.10;1.73;;;;;;;5.45;61.64;94328.69;5066958;28;20682;-78
2020/12/30 09:51:15;;;;;;;2.27;2.00;;;;;;;5.45;62.00;94336.34;5066236;28;20621;-78
2020/12/30 09:53:41;;;;;;;2.37;1.83;;;;;;;5.50;61.36;94332.31;5065609;28;20200;-75
2020/12/30 09:56:13;;;;;;;3.50;2.17;;;;;;;5.56;61.39;94328.28;5061401;28;20209;-75
2020/12/30 09:58:39;;;;;;;1.77;1.63;;;;;;;5.34;60.85;94316.38;5067172;28;20308;-77
2020/12/30 10:01:05;;;;;;;1.83;1.47;;;;;;;5.40;62.06;94323.31;5067305;28;20220;-76
2020/12/30 10:03:31;;;;;;;1.67;1.40;;;;;;;5.45;61.63;94315.94;5065825;28;20204;-74
2020/12/30 10:05:57;;;;;;;2.47;1.77;;;;;;;5.58;61.08;94311.00;5070063;28;20197;-73
2020/12/30 10:08:23;;;;;;;2.87;1.83;;;;;;;5.70;61.13;94309.59;5066936;28;20197;-74
2020/12/30 10:10:49;;;;;;;1.93;1.67;;;;;;;5.78;60.34;94311.22;5066932;28;20263;-77
2020/12/30 10:13:16;;;;;;;4.00;1.63;;;;;;;5.88;60.96;94314.31;5066100;28;20261;-77
2020/12/30 10:15:42;;;;;;;6.47;2.23;;;;;;;6.17;78.29;94323.69;5066749;28;20898;-76
2020/12/30 10:18:08;;;;;;;2.20;1.63;;;;;;;6.42;61.81;94311.38;5064241;28;20217;-78
2020/12/30 10:20:34;;;;;;;1.93;1.70;;;;;;;6.51;60.18;94310.31;5066819;28;20883;-74
2020/12/30 10:22:59;;;;;;;3.17;1.73;;;;;;;6.49;59.16;94305.38;5065887;28;20702;-78
2020/12/30 10:25:25;;;;;;;2.80;1.90;;;;;;;6.51;59.85;94305.19;5064305;28;20249;-77
2020/12/30 10:27:51;;;;;;;2.17;1.97;;;;;;;6.47;59.39;94314.19;5065344;28;20575;-77
2020/12/30 10:30:18;;;;;;;2.67;1.63;;;;;;;6.44;58.62;94309.44;5066764;28;20212;-75
2020/12/30 10:32:44;;;;;;;5.33;1.90;;;;;;;6.44;59.36;94306.88;5066147;28;20193;-76
2020/12/30 10:35:10;;;;;;;1.73;1.63;;;;;;;6.44;58.97;94309.44;5066180;28;20200;-75
2020/12/30 10:37:36;;;;;;;2.23;1.80;;;;;;;6.41;59.29;94310.59;5066455;28;20304;-78
2020/12/30 10:40:03;;;;;;;4.90;3.07;;;;;;;6.31;58.57;94309.31;5066704;28;20225;-79
2020/12/30 10:42:29;;;;;;;2.80;2.00;;;;;;;6.28;59.26;94318.13;5063708;28;20204;-76
2020/12/30 10:44:55;;;;;;;2.10;1.90;;;;;;;6.29;59.58;94319.72;5057974;28;20819;-78
2020/12/30 10:47:21;;;;;;;2.50;1.80;;;;;;;6.30;59.51;94313.63;5066445;28;20189;-75
2020/12/30 10:49:47;;;;;;;2.97;2.30;;;;;;;6.31;59.54;94310.09;5066434;28;20266;-75
2020/12/30 10:52:13;;;;;;;2.00;1.80;;;;;;;6.36;59.51;94306.97;5066069;28;20219;-75
2020/12/30 10:54:42;;;;;;;2.67;1.63;;;;;;;6.35;59.64;94318.22;5060860;28;20219;-74
2020/12/30 10:57:08;;;;;;;3.10;1.90;;;;;;;6.30;59.77;94317.97;5059752;28;20228;-74
2020/12/30 10:59:34;;;;;;;2.50;1.87;;;;;;;6.31;60.27;94320.34;5061881;28;20230;-76
2020/12/30 11:02:01;;;;;;;2.50;2.00;;;;;;;6.33;60.62;94323.50;5066536;28;20197;-80
2020/12/30 11:04:27;;;;;;;2.23;2.03;;;;;;;6.31;60.93;94324.66;5065257;28;20197;-77
2020/12/30 11:06:53;;;;;;;2.10;1.90;;;;;;;6.33;61.39;94323.50;5066648;28;20829;-74
2020/12/30 11:09:19;;;;;;;2.83;2.20;;;;;;;6.35;61.09;94318.97;5066598;28;20197;-81
2020/12/30 11:11:48;;;;;;;4.57;2.40;;;;;;;6.36;61.01;94324.88;5066859;28;20193;-77
2020/12/30 11:14:14;;;;;;;8.10;2.30;;;;;;;6.34;61.08;94325.09;5065792;28;20196;-80
2020/12/30 11:16:40;;;;;;;3.63;2.00;;;;;;;6.34;60.44;94319.97;5064623;28;20228;-76
2020/12/30 11:19:06;;;;;;;6.77;2.27;;;;;;;6.37;60.97;94322.16;5066427;28;20203;-77
2020/12/30 11:21:32;;;;;;;3.83;2.53;;;;;;;6.36;61.96;94317.22;5066601;28;20994;-80
2020/12/30 11:23:58;;;;;;;3.43;2.00;;;;;;;6.32;61.34;94323.69;5065347;28;20200;-79
2020/12/30 11:26:24;;;;;;;3.83;2.60;;;;;;;6.33;60.97;94313.28;5065369;28;20204;-76
2020/12/30 11:28:50;;;;;;;8.63;5.30;;;;;;;6.30;59.89;94316.19;5066392;28;20189;-80
2020/12/30 11:31:19;;;;;;;2.67;2.37;;;;;;;6.32;60.21;94318.56;5066934;28;20684;-76
2020/12/30 11:33:47;;;;;;;2.83;2.13;;;;;;;6.26;60.36;94317.53;5066171;28;20189;-80
2020/12/30 11:36:13;;;;;;;5.47;1.93;;;;;;;6.23;60.23;94318.66;5066839;28;20235;-75
2020/12/30 11:38:40;;;;;;;3.37;1.80;;;;;;;6.20;60.14;94315.69;5066304;28;20217;-76
2020/12/30 11:41:06;;;;;;;4.33;1.80;;;;;;;6.21;59.77;94315.50;5066046;28;20231;-77
2020/12/30 11:43:32;;;;;;;4.60;2.03;;;;;;;6.18;59.46;94323.53;5066331;28;20208;-76